Terminal Aerodrome Forecast
Issued by NWS Cleveland, OH

Home | Current Version | Previous Version | Graphics & Text | Print | Product List | Glossary Off
Versions: 1 2 3 4 5 6 7 8 9 10 11 12 13 14 15 16

000
FTUS41 KCLE 230500 RRA
TAFTOL
TAF
KTOL 230541Z 2306/2406 24006KT P6SM BKN080 OVC250
      TEMPO 2306/2309 5SM -SHRA OVC040
     FM230900 28008KT P6SM VCSH OVC040
     FM231100 32010KT P6SM OVC012
     FM231500 35010KT P6SM BKN020
     FM231800 01010KT P6SM BKN040
     FM232300 01008KT P6SM SCT050=

USA.gov is the U.S. government's official web portal to all federal, state and local government web resources and services.